Terminal Aerodrome Forecast
Issued by NWS

Current Version | Previous Version | Text Only | Print | Product List | Glossary Off
Versions: 1 2 3 4 5 6 7 8 9 10 11 12 13 14 15 16 17 18 19

660
FTUS41 KILN 230835 AAA
TAFLCK
TAF AMD
KLCK 230835Z 2309/2406 04009KT P6SM VCSH OVC025
     FM231300 03011KT 5SM -SHRA BR OVC015
     FM231900 03011KT 5SM BR VCSH OVC008
     FM240000 01006KT P6SM OVC008=

USA.gov is the U.S. government's official web portal to all federal, state and local government web resources and services.